• Join FlightAware (Why Join?)
  • Login
  • US Flag 
09:11PM EST


 

Airport Tracker/Info


-or-


 

Live Flight TrackerFlight Track Log ✈ UAL3776 ✈ 14-Apr-2013 ✈ KIAD - KRDU

Flight Track Log - Related Links

Times and Time Zones

All times are in EDT time to prevent confusion due to time zone crossing. See the UAL3776 flight status page for this flight to view local times or setup timezone preferences in your user account.

Time Position Orientation Groundspeed Altitude Reporting Facility
EDT Latitude Longitude Course Direction KTS MPH feet Rate Location/Type
03:41PM 38.9167 -77.5500 226° Southwest 207 238 3,100  Level Potomac TRACON
03:42PM 38.8833 -77.6333 243° Southwest 256 295 5,200 1,980 Climbing Potomac TRACON
03:43PM 38.5389 -77.6434 185° South  Level Estimated
03:43PM 38.8333 -77.6833 218° Southwest 270 311 7,000  Level Potomac TRACON
03:44PM 38.4410 -77.5846 155° Southeast  Level FlightAware Approximate
03:44PM 38.7500 -77.6667 171° South 286 329 7,100  Level Potomac TRACON
03:45PM 38.3399 -77.6337 218° Southwest  Level Estimated
03:45PM 38.6789 -77.6472 168° South 295 339 9,900  Level Washington Center
03:46PM 38.2388 -77.6827 226° Southwest  Level Estimated
03:46PM 38.6033 -77.6797 199° South 314 361 12,800  Level Washington Center
03:47PM 38.5233 -77.7306 206° Southwest 309 356 14,200 1,800 Climbing Washington Center
03:48PM 38.4347 -77.7889 207° Southwest 335 386 16,400 2,280 Climbing Washington Center
03:49PM 38.3461 -77.8472 207° Southwest 357 411 18,800 2,160 Climbing Washington Center
03:50PM 38.2553 -77.9053 207° Southwest 363 418 20,800 1,560 Climbing Washington Center
03:51PM 38.1603 -77.9658 207° Southwest 374 430 22,000 600 Climbing Washington Center
03:52PM 38.0567 -78.0339 207° Southwest 383 441 22,000  Level Washington Center
03:53PM 37.9594 -78.0964 207° Southwest 388 447 22,000  Level Washington Center
03:54PM 37.8747 -78.1514 207° Southwest 393 452 22,000  Level Washington Center
03:55PM 37.7753 -78.2164 207° Southwest 388 447 22,000  Level Washington Center
03:56PM 37.6781 -78.2786 207° Southwest 383 441 22,000  Level Washington Center
03:57PM 37.5850 -78.3383 207° Southwest 383 441 22,000  Level Washington Center
03:58PM 37.4897 -78.3978 206° Southwest 383 441 22,000  Level Washington Center
03:59PM 37.4028 -78.4547 207° Southwest 383 441 22,000  Level Washington Center
04:00PM 37.3056 -78.5136 206° Southwest 383 441 22,000  Level Washington Center
04:01PM 37.2058 -78.5775 207° Southwest 390 449 22,000  Level Washington Center
04:02PM 37.1122 -78.6547 213° Southwest 401 461 22,000 -180 Level Washington Center
04:03PM 37.0078 -78.7417 214° Southwest 411 473 21,700 -960 Descending Washington Center
04:04PM 36.9225 -78.8083 212° Southwest 403 464 20,100 -1,500 Descending Washington Center
04:05PM 36.8456 -78.8725 214° Southwest 369 425 18,700 -1,440 Descending Washington Center
04:06PM 36.7664 -78.9392 214° Southwest 351 404 17,300 -1,380 Descending Washington Center
04:07PM 36.6664 -79.0100 210° Southwest 350 403 15,800 -1,680 Descending Washington Center
04:08PM 36.5897 -78.9936 170° South 322 371 14,000 -2,220 Descending Washington Center
04:09PM 36.4986 -78.9664 166° South 328 377 11,700 -2,040 Descending Washington Center
04:10PM 36.4119 -78.9394 166° South 328 377 10,000 -1,500 Descending Washington Center
04:11PM 36.3261 -78.8714 147° Southeast 319 367 8,500 -1,020 Descending Washington Center
04:12PM 36.2711 -78.8200 143° Southeast 307 353 8,000 -600 Descending Washington Center
04:13PM 36.2161 -78.7714 145° Southeast 264 304 7,500 -900 Descending Washington Center
04:14PM 36.1692 -78.7311 145° Southeast 235 270 6,200 -1,080 Descending Washington Center
04:15PM 36.1117 -78.6928 152° Southeast 223 257 5,400 -1,380 Descending Washington Center
04:16PM 36.0581 -78.6700 161° South 217 250 3,500 -1,740 Descending Washington Center
04:17PM 36.0019 -78.6678 178° South 212 244 2,000 -1,140 Descending Washington Center
04:17PM 35.9828 -78.6775 202° Southwest 194 223 2,000 -240 Level Washington Center
04:18PM 35.9419 -78.7219 221° Southwest 166 191 1,700 -480 Descending Washington Center
04:19PM 35.9161 -78.7492 220° Southwest 127 146 1,100 -660 Descending Washington Center